sensor_id;sensor_type;location;lat;lon;timestamp;P1;durP1;ratioP1;P2;durP2;ratioP2
52898;SDS011;38763;53.096;6.062;2024-03-02T00:00:51;5.50;;;2.50;;
52898;SDS011;38763;53.096;6.062;2024-03-02T00:03:17;5.35;;;2.15;;
52898;SDS011;38763;53.096;6.062;2024-03-02T00:05:43;5.88;;;2.80;;
52898;SDS011;38763;53.096;6.062;2024-03-02T00:08:13;4.68;;;2.38;;
52898;SDS011;38763;53.096;6.062;2024-03-02T00:10:47;5.60;;;2.50;;
52898;SDS011;38763;53.096;6.062;2024-03-02T00:13:13;5.50;;;2.33;;
52898;SDS011;38763;53.096;6.062;2024-03-02T00:18:11;4.85;;;2.40;;
52898;SDS011;38763;53.096;6.062;2024-03-02T00:20:43;5.28;;;2.58;;
52898;SDS011;38763;53.096;6.062;2024-03-02T00:23:09;5.03;;;2.55;;
52898;SDS011;38763;53.096;6.062;2024-03-02T00:25:49;4.40;;;2.38;;
52898;SDS011;38763;53.096;6.062;2024-03-02T00:28:21;4.80;;;2.40;;
52898;SDS011;38763;53.096;6.062;2024-03-02T00:33:21;4.93;;;2.70;;
52898;SDS011;38763;53.096;6.062;2024-03-02T00:35:47;4.88;;;2.50;;
52898;SDS011;38763;53.096;6.062;2024-03-02T00:38:14;5.65;;;2.50;;
52898;SDS011;38763;53.096;6.062;2024-03-02T00:40:41;5.63;;;2.50;;
52898;SDS011;38763;53.096;6.062;2024-03-02T00:44:11;6.03;;;2.53;;
52898;SDS011;38763;53.096;6.062;2024-03-02T00:46:13;5.03;;;2.80;;
52898;SDS011;38763;53.096;6.062;2024-03-02T00:51:19;5.10;;;2.63;;
52898;SDS011;38763;53.096;6.062;2024-03-02T00:53:49;4.75;;;2.50;;
52898;SDS011;38763;53.096;6.062;2024-03-02T00:56:17;5.18;;;2.47;;
52898;SDS011;38763;53.096;6.062;2024-03-02T00:58:43;4.90;;;2.50;;
52898;SDS011;38763;53.096;6.062;2024-03-02T01:01:09;4.75;;;2.22;;
52898;SDS011;38763;53.096;6.062;2024-03-02T01:03:35;5.45;;;2.30;;
52898;SDS011;38763;53.096;6.062;2024-03-02T01:06:02;7.30;;;2.60;;
52898;SDS011;38763;53.096;6.062;2024-03-02T01:08:28;5.68;;;2.40;;
52898;SDS011;38763;53.096;6.062;2024-03-02T01:10:54;6.43;;;2.45;;
52898;SDS011;38763;53.096;6.062;2024-03-02T01:13:21;5.85;;;2.20;;
52898;SDS011;38763;53.096;6.062;2024-03-02T01:15:47;4.38;;;2.22;;
52898;SDS011;38763;53.096;6.062;2024-03-02T01:18:13;4.30;;;2.05;;
52898;SDS011;38763;53.096;6.062;2024-03-02T01:20:38;3.80;;;2.08;;
52898;SDS011;38763;53.096;6.062;2024-03-02T01:23:04;5.25;;;2.60;;
52898;SDS011;38763;53.096;6.062;2024-03-02T01:25:29;3.92;;;2.15;;
52898;SDS011;38763;53.096;6.062;2024-03-02T01:27:55;4.30;;;2.03;;
52898;SDS011;38763;53.096;6.062;2024-03-02T01:30:21;5.30;;;2.13;;
52898;SDS011;38763;53.096;6.062;2024-03-02T01:32:46;4.57;;;2.25;;
52898;SDS011;38763;53.096;6.062;2024-03-02T01:35:12;4.78;;;2.30;;
52898;SDS011;38763;53.096;6.062;2024-03-02T01:37:38;4.10;;;2.10;;
52898;SDS011;38763;53.096;6.062;2024-03-02T01:40:04;5.72;;;2.17;;
52898;SDS011;38763;53.096;6.062;2024-03-02T01:42:35;4.50;;;1.90;;
52898;SDS011;38763;53.096;6.062;2024-03-02T01:45:07;4.60;;;2.20;;
52898;SDS011;38763;53.096;6.062;2024-03-02T01:47:34;4.10;;;2.03;;
52898;SDS011;38763;53.096;6.062;2024-03-02T01:50:00;4.15;;;2.20;;
52898;SDS011;38763;53.096;6.062;2024-03-02T01:52:26;4.07;;;2.30;;
52898;SDS011;38763;53.096;6.062;2024-03-02T01:54:52;3.92;;;1.98;;
52898;SDS011;38763;53.096;6.062;2024-03-02T01:57:18;4.68;;;2.10;;
52898;SDS011;38763;53.096;6.062;2024-03-02T01:59:44;4.07;;;2.10;;
52898;SDS011;38763;53.096;6.062;2024-03-02T02:02:12;4.75;;;1.80;;
52898;SDS011;38763;53.096;6.062;2024-03-02T02:04:39;4.47;;;2.05;;
52898;SDS011;38763;53.096;6.062;2024-03-02T02:07:05;5.95;;;1.88;;
52898;SDS011;38763;53.096;6.062;2024-03-02T02:09:31;4.57;;;2.00;;
52898;SDS011;38763;53.096;6.062;2024-03-02T02:11:57;4.25;;;2.10;;
52898;SDS011;38763;53.096;6.062;2024-03-02T02:14:23;3.72;;;1.60;;
52898;SDS011;38763;53.096;6.062;2024-03-02T02:16:49;6.95;;;2.28;;
52898;SDS011;38763;53.096;6.062;2024-03-02T02:19:14;4.47;;;1.75;;
52898;SDS011;38763;53.096;6.062;2024-03-02T02:21:43;5.22;;;2.30;;
52898;SDS011;38763;53.096;6.062;2024-03-02T02:24:09;3.33;;;1.60;;
52898;SDS011;38763;53.096;6.062;2024-03-02T02:26:38;3.85;;;1.92;;
52898;SDS011;38763;53.096;6.062;2024-03-02T02:29:03;3.95;;;1.80;;
52898;SDS011;38763;53.096;6.062;2024-03-02T02:31:38;4.18;;;1.98;;
52898;SDS011;38763;53.096;6.062;2024-03-02T02:34:05;3.85;;;1.85;;
52898;SDS011;38763;53.096;6.062;2024-03-02T02:36:33;5.10;;;2.00;;
52898;SDS011;38763;53.096;6.062;2024-03-02T02:39:02;4.57;;;1.80;;
52898;SDS011;38763;53.096;6.062;2024-03-02T02:41:28;5.88;;;2.00;;
52898;SDS011;38763;53.096;6.062;2024-03-02T02:43:55;3.92;;;1.75;;
52898;SDS011;38763;53.096;6.062;2024-03-02T02:46:20;6.78;;;2.08;;
52898;SDS011;38763;53.096;6.062;2024-03-02T02:48:46;4.65;;;1.95;;
52898;SDS011;38763;53.096;6.062;2024-03-02T02:51:12;4.35;;;2.10;;
52898;SDS011;38763;53.096;6.062;2024-03-02T02:53:37;4.45;;;1.85;;
52898;SDS011;38763;53.096;6.062;2024-03-02T02:56:06;3.95;;;1.67;;
52898;SDS011;38763;53.096;6.062;2024-03-02T02:58:31;5.32;;;2.00;;
52898;SDS011;38763;53.096;6.062;2024-03-02T03:00:57;3.78;;;2.03;;
52898;SDS011;38763;53.096;6.062;2024-03-02T03:03:23;5.00;;;2.40;;
52898;SDS011;38763;53.096;6.062;2024-03-02T03:05:48;4.35;;;1.80;;
52898;SDS011;38763;53.096;6.062;2024-03-02T03:08:14;5.25;;;1.98;;
52898;SDS011;38763;53.096;6.062;2024-03-02T03:10:41;5.30;;;2.05;;
52898;SDS011;38763;53.096;6.062;2024-03-02T03:13:07;3.75;;;1.80;;
52898;SDS011;38763;53.096;6.062;2024-03-02T03:15:36;4.68;;;1.92;;
52898;SDS011;38763;53.096;6.062;2024-03-02T03:18:02;3.97;;;2.20;;
52898;SDS011;38763;53.096;6.062;2024-03-02T03:20:29;4.05;;;2.20;;
52898;SDS011;38763;53.096;6.062;2024-03-02T03:22:55;6.13;;;2.63;;
52898;SDS011;38763;53.096;6.062;2024-03-02T03:25:20;4.53;;;2.10;;
52898;SDS011;38763;53.096;6.062;2024-03-02T03:27:46;4.25;;;1.90;;
52898;SDS011;38763;53.096;6.062;2024-03-02T03:30:12;4.55;;;2.08;;
52898;SDS011;38763;53.096;6.062;2024-03-02T03:32:38;5.70;;;2.10;;
52898;SDS011;38763;53.096;6.062;2024-03-02T03:35:04;4.25;;;2.00;;
52898;SDS011;38763;53.096;6.062;2024-03-02T03:37:31;3.75;;;2.00;;
52898;SDS011;38763;53.096;6.062;2024-03-02T03:39:58;5.70;;;2.22;;
52898;SDS011;38763;53.096;6.062;2024-03-02T03:42:24;4.35;;;1.98;;
52898;SDS011;38763;53.096;6.062;2024-03-02T03:44:50;3.97;;;2.10;;
52898;SDS011;38763;53.096;6.062;2024-03-02T03:47:15;4.50;;;2.10;;
52898;SDS011;38763;53.096;6.062;2024-03-02T03:49:41;4.20;;;2.10;;
52898;SDS011;38763;53.096;6.062;2024-03-02T03:52:07;4.88;;;2.20;;
52898;SDS011;38763;53.096;6.062;2024-03-02T03:54:32;6.00;;;2.40;;
52898;SDS011;38763;53.096;6.062;2024-03-02T03:56:58;4.18;;;2.15;;
52898;SDS011;38763;53.096;6.062;2024-03-02T03:59:24;4.28;;;2.10;;
52898;SDS011;38763;53.096;6.062;2024-03-02T04:01:50;3.50;;;1.80;;
52898;SDS011;38763;53.096;6.062;2024-03-02T04:04:15;4.55;;;2.20;;
52898;SDS011;38763;53.096;6.062;2024-03-02T04:06:42;5.10;;;2.28;;
52898;SDS011;38763;53.096;6.062;2024-03-02T04:09:07;4.18;;;2.30;;
52898;SDS011;38763;53.096;6.062;2024-03-02T04:11:33;3.50;;;2.00;;
52898;SDS011;38763;53.096;6.062;2024-03-02T04:13:59;6.07;;;2.38;;
52898;SDS011;38763;53.096;6.062;2024-03-02T04:16:24;6.43;;;2.53;;
52898;SDS011;38763;53.096;6.062;2024-03-02T04:18:50;4.32;;;2.20;;
52898;SDS011;38763;53.096;6.062;2024-03-02T04:21:16;4.63;;;2.10;;
52898;SDS011;38763;53.096;6.062;2024-03-02T04:23:41;4.90;;;2.35;;
52898;SDS011;38763;53.096;6.062;2024-03-02T04:26:07;5.38;;;2.30;;
52898;SDS011;38763;53.096;6.062;2024-03-02T04:28:33;3.58;;;1.98;;
52898;SDS011;38763;53.096;6.062;2024-03-02T04:30:58;4.18;;;2.00;;
52898;SDS011;38763;53.096;6.062;2024-03-02T04:33:24;3.83;;;1.88;;
52898;SDS011;38763;53.096;6.062;2024-03-02T04:35:50;4.68;;;2.10;;
52898;SDS011;38763;53.096;6.062;2024-03-02T04:38:15;4.63;;;2.00;;
52898;SDS011;38763;53.096;6.062;2024-03-02T04:40:41;3.83;;;2.10;;
52898;SDS011;38763;53.096;6.062;2024-03-02T04:43:07;3.85;;;1.98;;
52898;SDS011;38763;53.096;6.062;2024-03-02T04:45:34;3.95;;;2.00;;
52898;SDS011;38763;53.096;6.062;2024-03-02T04:48:02;4.05;;;1.70;;
52898;SDS011;38763;53.096;6.062;2024-03-02T04:50:28;3.67;;;1.60;;
52898;SDS011;38763;53.096;6.062;2024-03-02T04:52:53;3.72;;;1.42;;
52898;SDS011;38763;53.096;6.062;2024-03-02T04:55:19;2.22;;;1.10;;
52898;SDS011;38763;53.096;6.062;2024-03-02T04:58:01;2.63;;;0.80;;
52898;SDS011;38763;53.096;6.062;2024-03-02T05:00:31;1.05;;;0.55;;
52898;SDS011;38763;53.096;6.062;2024-03-02T05:02:57;0.98;;;0.70;;
52898;SDS011;38763;53.096;6.062;2024-03-02T05:05:23;1.48;;;0.50;;
52898;SDS011;38763;53.096;6.062;2024-03-02T05:07:49;0.98;;;0.60;;
52898;SDS011;38763;53.096;6.062;2024-03-02T05:10:14;0.80;;;0.40;;
52898;SDS011;38763;53.096;6.062;2024-03-02T05:12:40;0.85;;;0.47;;
52898;SDS011;38763;53.096;6.062;2024-03-02T05:15:12;1.70;;;0.50;;
52898;SDS011;38763;53.096;6.062;2024-03-02T05:17:39;2.40;;;0.40;;
52898;SDS011;38763;53.096;6.062;2024-03-02T05:20:08;1.02;;;0.40;;
52898;SDS011;38763;53.096;6.062;2024-03-02T05:22:34;1.13;;;0.50;;
52898;SDS011;38763;53.096;6.062;2024-03-02T05:25:00;0.70;;;0.45;;
52898;SDS011;38763;53.096;6.062;2024-03-02T05:27:27;0.82;;;0.50;;
52898;SDS011;38763;53.096;6.062;2024-03-02T05:29:52;0.95;;;0.50;;
52898;SDS011;38763;53.096;6.062;2024-03-02T05:32:18;1.10;;;0.57;;
52898;SDS011;38763;53.096;6.062;2024-03-02T05:34:44;1.05;;;0.50;;
52898;SDS011;38763;53.096;6.062;2024-03-02T05:37:10;3.47;;;0.60;;
52898;SDS011;38763;53.096;6.062;2024-03-02T05:39:36;1.30;;;0.50;;
52898;SDS011;38763;53.096;6.062;2024-03-02T05:42:01;0.73;;;0.52;;
52898;SDS011;38763;53.096;6.062;2024-03-02T05:44:28;1.95;;;0.50;;
52898;SDS011;38763;53.096;6.062;2024-03-02T05:46:54;0.70;;;0.60;;
52898;SDS011;38763;53.096;6.062;2024-03-02T05:49:19;1.83;;;0.70;;
52898;SDS011;38763;53.096;6.062;2024-03-02T05:51:45;2.10;;;0.60;;
52898;SDS011;38763;53.096;6.062;2024-03-02T05:54:11;2.00;;;0.80;;
52898;SDS011;38763;53.096;6.062;2024-03-02T05:56:37;1.60;;;0.80;;
52898;SDS011;38763;53.096;6.062;2024-03-02T05:59:02;1.65;;;0.90;;
52898;SDS011;38763;53.096;6.062;2024-03-02T06:01:44;1.60;;;0.80;;
52898;SDS011;38763;53.096;6.062;2024-03-02T06:04:12;1.92;;;0.80;;
52898;SDS011;38763;53.096;6.062;2024-03-02T06:06:38;2.30;;;0.95;;
52898;SDS011;38763;53.096;6.062;2024-03-02T06:09:04;3.05;;;1.10;;
52898;SDS011;38763;53.096;6.062;2024-03-02T06:11:33;1.52;;;0.95;;
52898;SDS011;38763;53.096;6.062;2024-03-02T06:13:59;2.15;;;0.90;;
52898;SDS011;38763;53.096;6.062;2024-03-02T06:16:24;3.38;;;0.90;;
52898;SDS011;38763;53.096;6.062;2024-03-02T06:18:50;1.50;;;0.85;;
52898;SDS011;38763;53.096;6.062;2024-03-02T06:21:16;1.45;;;0.80;;
52898;SDS011;38763;53.096;6.062;2024-03-02T06:23:43;2.35;;;1.05;;
52898;SDS011;38763;53.096;6.062;2024-03-02T06:26:09;1.90;;;0.85;;
52898;SDS011;38763;53.096;6.062;2024-03-02T06:28:34;1.20;;;0.70;;
52898;SDS011;38763;53.096;6.062;2024-03-02T06:31:01;2.70;;;0.75;;
52898;SDS011;38763;53.096;6.062;2024-03-02T06:33:27;1.67;;;0.88;;
52898;SDS011;38763;53.096;6.062;2024-03-02T06:35:53;2.50;;;0.75;;
52898;SDS011;38763;53.096;6.062;2024-03-02T06:38:19;3.95;;;0.98;;
52898;SDS011;38763;53.096;6.062;2024-03-02T06:40:45;1.10;;;0.70;;
52898;SDS011;38763;53.096;6.062;2024-03-02T06:43:10;1.08;;;0.73;;
52898;SDS011;38763;53.096;6.062;2024-03-02T06:45:36;2.03;;;0.90;;
52898;SDS011;38763;53.096;6.062;2024-03-02T06:48:02;2.00;;;0.70;;
52898;SDS011;38763;53.096;6.062;2024-03-02T06:50:28;2.03;;;0.88;;
52898;SDS011;38763;53.096;6.062;2024-03-02T06:52:53;2.17;;;0.90;;
52898;SDS011;38763;53.096;6.062;2024-03-02T06:55:21;1.77;;;0.70;;
52898;SDS011;38763;53.096;6.062;2024-03-02T06:57:47;1.02;;;0.75;;
52898;SDS011;38763;53.096;6.062;2024-03-02T07:00:12;2.13;;;0.90;;
52898;SDS011;38763;53.096;6.062;2024-03-02T07:02:39;1.23;;;0.80;;
52898;SDS011;38763;53.096;6.062;2024-03-02T07:05:06;1.30;;;0.80;;
52898;SDS011;38763;53.096;6.062;2024-03-02T07:07:33;2.50;;;0.85;;
52898;SDS011;38763;53.096;6.062;2024-03-02T07:10:00;1.05;;;0.63;;
52898;SDS011;38763;53.096;6.062;2024-03-02T07:12:26;2.03;;;0.90;;
52898;SDS011;38763;53.096;6.062;2024-03-02T07:14:51;1.60;;;0.90;;
52898;SDS011;38763;53.096;6.062;2024-03-02T07:17:29;1.42;;;0.80;;
52898;SDS011;38763;53.096;6.062;2024-03-02T07:19:55;1.75;;;1.10;;
52898;SDS011;38763;53.096;6.062;2024-03-02T07:22:22;1.90;;;0.70;;
52898;SDS011;38763;53.096;6.062;2024-03-02T07:24:48;2.70;;;0.90;;
52898;SDS011;38763;53.096;6.062;2024-03-02T07:27:14;1.98;;;0.95;;
52898;SDS011;38763;53.096;6.062;2024-03-02T07:29:41;2.33;;;0.80;;
52898;SDS011;38763;53.096;6.062;2024-03-02T07:32:07;1.65;;;0.70;;
52898;SDS011;38763;53.096;6.062;2024-03-02T07:34:33;1.75;;;0.90;;
52898;SDS011;38763;53.096;6.062;2024-03-02T07:36:59;2.35;;;0.77;;
52898;SDS011;38763;53.096;6.062;2024-03-02T07:39:25;2.22;;;0.80;;
52898;SDS011;38763;53.096;6.062;2024-03-02T07:41:51;5.18;;;0.95;;
52898;SDS011;38763;53.096;6.062;2024-03-02T07:44:17;3.38;;;0.90;;
52898;SDS011;38763;53.096;6.062;2024-03-02T07:46:44;2.10;;;0.90;;
52898;SDS011;38763;53.096;6.062;2024-03-02T07:49:17;2.88;;;0.88;;
52898;SDS011;38763;53.096;6.062;2024-03-02T07:51:44;2.75;;;1.00;;
52898;SDS011;38763;53.096;6.062;2024-03-02T07:54:09;2.47;;;0.80;;
52898;SDS011;38763;53.096;6.062;2024-03-02T07:56:35;2.53;;;1.02;;
52898;SDS011;38763;53.096;6.062;2024-03-02T07:59:02;2.60;;;1.10;;
52898;SDS011;38763;53.096;6.062;2024-03-02T08:01:31;3.20;;;1.10;;
52898;SDS011;38763;53.096;6.062;2024-03-02T08:03:57;3.00;;;1.10;;
52898;SDS011;38763;53.096;6.062;2024-03-02T08:06:24;2.08;;;0.90;;
52898;SDS011;38763;53.096;6.062;2024-03-02T08:08:58;4.22;;;1.10;;
52898;SDS011;38763;53.096;6.062;2024-03-02T08:11:25;3.90;;;1.15;;
52898;SDS011;38763;53.096;6.062;2024-03-02T08:13:52;2.53;;;1.10;;
52898;SDS011;38763;53.096;6.062;2024-03-02T08:16:20;2.40;;;1.05;;
52898;SDS011;38763;53.096;6.062;2024-03-02T08:18:50;3.22;;;1.17;;
52898;SDS011;38763;53.096;6.062;2024-03-02T08:21:16;2.22;;;1.00;;
52898;SDS011;38763;53.096;6.062;2024-03-02T08:23:42;2.28;;;1.08;;
52898;SDS011;38763;53.096;6.062;2024-03-02T08:26:08;4.25;;;1.30;;
52898;SDS011;38763;53.096;6.062;2024-03-02T08:28:35;3.10;;;1.10;;
52898;SDS011;38763;53.096;6.062;2024-03-02T08:31:07;4.60;;;1.80;;
52898;SDS011;38763;53.096;6.062;2024-03-02T08:33:33;3.90;;;1.88;;
52898;SDS011;38763;53.096;6.062;2024-03-02T08:36:00;4.38;;;1.70;;
52898;SDS011;38763;53.096;6.062;2024-03-02T08:38:25;5.55;;;2.00;;
52898;SDS011;38763;53.096;6.062;2024-03-02T08:40:51;5.32;;;1.83;;
52898;SDS011;38763;53.096;6.062;2024-03-02T08:43:20;5.30;;;1.95;;
52898;SDS011;38763;53.096;6.062;2024-03-02T08:45:47;3.78;;;1.80;;
52898;SDS011;38763;53.096;6.062;2024-03-02T08:48:13;5.38;;;2.13;;
52898;SDS011;38763;53.096;6.062;2024-03-02T08:50:40;5.35;;;2.00;;
52898;SDS011;38763;53.096;6.062;2024-03-02T08:53:05;4.65;;;1.77;;
52898;SDS011;38763;53.096;6.062;2024-03-02T08:55:31;5.22;;;1.90;;
52898;SDS011;38763;53.096;6.062;2024-03-02T08:57:57;5.75;;;1.90;;
52898;SDS011;38763;53.096;6.062;2024-03-02T09:00:23;3.92;;;1.85;;
52898;SDS011;38763;53.096;6.062;2024-03-02T09:02:48;4.60;;;1.80;;
52898;SDS011;38763;53.096;6.062;2024-03-02T09:05:14;5.38;;;1.88;;
52898;SDS011;38763;53.096;6.062;2024-03-02T09:07:40;5.75;;;1.65;;
52898;SDS011;38763;53.096;6.062;2024-03-02T09:10:06;4.18;;;1.85;;
52898;SDS011;38763;53.096;6.062;2024-03-02T09:12:35;5.65;;;1.70;;
52898;SDS011;38763;53.096;6.062;2024-03-02T09:15:02;3.25;;;1.25;;
52898;SDS011;38763;53.096;6.062;2024-03-02T09:17:29;2.95;;;1.35;;
52898;SDS011;38763;53.096;6.062;2024-03-02T09:19:55;3.65;;;1.13;;
52898;SDS011;38763;53.096;6.062;2024-03-02T09:22:21;2.70;;;1.10;;
52898;SDS011;38763;53.096;6.062;2024-03-02T09:24:46;4.22;;;0.85;;
52898;SDS011;38763;53.096;6.062;2024-03-02T09:27:12;5.88;;;1.00;;
52898;SDS011;38763;53.096;6.062;2024-03-02T09:29:38;4.82;;;1.13;;
52898;SDS011;38763;53.096;6.062;2024-03-02T09:32:04;2.25;;;0.80;;
52898;SDS011;38763;53.096;6.062;2024-03-02T09:34:31;2.50;;;0.98;;
52898;SDS011;38763;53.096;6.062;2024-03-02T09:36:57;2.33;;;1.00;;
52898;SDS011;38763;53.096;6.062;2024-03-02T09:39:22;1.98;;;0.80;;
52898;SDS011;38763;53.096;6.062;2024-03-02T09:41:48;3.13;;;1.30;;
52898;SDS011;38763;53.096;6.062;2024-03-02T09:44:14;2.60;;;1.05;;
52898;SDS011;38763;53.096;6.062;2024-03-02T09:46:39;3.13;;;0.93;;
52898;SDS011;38763;53.096;6.062;2024-03-02T09:49:05;3.15;;;1.00;;
52898;SDS011;38763;53.096;6.062;2024-03-02T09:51:31;3.22;;;0.90;;
52898;SDS011;38763;53.096;6.062;2024-03-02T09:53:57;3.03;;;1.00;;
52898;SDS011;38763;53.096;6.062;2024-03-02T09:56:25;2.95;;;1.00;;
52898;SDS011;38763;53.096;6.062;2024-03-02T09:58:51;2.67;;;0.93;;
52898;SDS011;38763;53.096;6.062;2024-03-02T10:01:17;4.07;;;1.15;;
52898;SDS011;38763;53.096;6.062;2024-03-02T10:03:43;4.30;;;1.02;;
52898;SDS011;38763;53.096;6.062;2024-03-02T10:06:20;3.30;;;1.10;;
52898;SDS011;38763;53.096;6.062;2024-03-02T10:08:46;2.70;;;0.90;;
52898;SDS011;38763;53.096;6.062;2024-03-02T10:11:47;2.95;;;0.90;;
52898;SDS011;38763;53.096;6.062;2024-03-02T10:16:39;4.03;;;1.00;;
52898;SDS011;38763;53.096;6.062;2024-03-02T10:19:15;2.30;;;0.90;;
52898;SDS011;38763;53.096;6.062;2024-03-02T10:21:43;2.75;;;1.10;;
52898;SDS011;38763;53.096;6.062;2024-03-02T10:24:18;3.55;;;1.05;;
52898;SDS011;38763;53.096;6.062;2024-03-02T10:26:45;1.92;;;0.90;;
52898;SDS011;38763;53.096;6.062;2024-03-02T10:29:11;4.40;;;0.90;;
52898;SDS011;38763;53.096;6.062;2024-03-02T10:31:38;3.78;;;0.93;;
52898;SDS011;38763;53.096;6.062;2024-03-02T10:34:05;3.55;;;1.02;;
52898;SDS011;38763;53.096;6.062;2024-03-02T10:36:32;3.17;;;0.98;;
52898;SDS011;38763;53.096;6.062;2024-03-02T10:39:01;2.85;;;0.90;;
52898;SDS011;38763;53.096;6.062;2024-03-02T10:41:34;3.97;;;1.20;;
52898;SDS011;38763;53.096;6.062;2024-03-02T10:44:05;2.88;;;0.80;;
52898;SDS011;38763;53.096;6.062;2024-03-02T10:46:32;2.65;;;0.93;;
52898;SDS011;38763;53.096;6.062;2024-03-02T10:48:59;3.42;;;1.08;;
52898;SDS011;38763;53.096;6.062;2024-03-02T10:51:26;4.10;;;0.80;;
52898;SDS011;38763;53.096;6.062;2024-03-02T10:53:56;3.20;;;0.82;;
52898;SDS011;38763;53.096;6.062;2024-03-02T10:56:32;3.22;;;1.00;;
52898;SDS011;38763;53.096;6.062;2024-03-02T10:59:09;4.88;;;1.27;;
52898;SDS011;38763;53.096;6.062;2024-03-02T11:01:53;3.88;;;1.25;;
52898;SDS011;38763;53.096;6.062;2024-03-02T11:04:22;3.47;;;1.08;;
52898;SDS011;38763;53.096;6.062;2024-03-02T11:06:51;3.33;;;0.90;;
52898;SDS011;38763;53.096;6.062;2024-03-02T11:09:21;3.65;;;1.00;;
52898;SDS011;38763;53.096;6.062;2024-03-02T11:12:04;2.75;;;0.80;;
52898;SDS011;38763;53.096;6.062;2024-03-02T11:14:37;4.88;;;1.00;;
52898;SDS011;38763;53.096;6.062;2024-03-02T11:17:08;3.85;;;0.93;;
52898;SDS011;38763;53.096;6.062;2024-03-02T11:19:35;2.90;;;0.95;;
52898;SDS011;38763;53.096;6.062;2024-03-02T11:22:03;3.42;;;0.98;;
52898;SDS011;38763;53.096;6.062;2024-03-02T11:24:30;3.22;;;0.85;;
52898;SDS011;38763;53.096;6.062;2024-03-02T11:27:00;2.58;;;0.73;;
52898;SDS011;38763;53.096;6.062;2024-03-02T11:34:34;5.70;;;1.15;;
52898;SDS011;38763;53.096;6.062;2024-03-02T11:37:01;4.85;;;1.20;;
52898;SDS011;38763;53.096;6.062;2024-03-02T11:39:27;5.53;;;1.00;;
52898;SDS011;38763;53.096;6.062;2024-03-02T11:41:53;2.22;;;0.77;;
52898;SDS011;38763;53.096;6.062;2024-03-02T11:44:20;3.83;;;1.10;;
52898;SDS011;38763;53.096;6.062;2024-03-02T11:46:51;4.93;;;1.00;;
52898;SDS011;38763;53.096;6.062;2024-03-02T11:49:40;2.95;;;0.95;;
52898;SDS011;38763;53.096;6.062;2024-03-02T11:52:07;5.43;;;1.08;;
52898;SDS011;38763;53.096;6.062;2024-03-02T11:54:35;3.90;;;1.33;;
52898;SDS011;38763;53.096;6.062;2024-03-02T11:57:11;3.22;;;1.00;;
52898;SDS011;38763;53.096;6.062;2024-03-02T11:59:41;3.25;;;1.20;;
52898;SDS011;38763;53.096;6.062;2024-03-02T12:02:12;4.63;;;1.10;;
52898;SDS011;38763;53.096;6.062;2024-03-02T12:04:43;3.80;;;1.10;;
52898;SDS011;38763;53.096;6.062;2024-03-02T12:07:10;5.18;;;1.20;;
52898;SDS011;38763;53.096;6.062;2024-03-02T12:09:36;3.03;;;1.00;;
52898;SDS011;38763;53.096;6.062;2024-03-02T12:12:05;4.90;;;1.00;;
52898;SDS011;38763;53.096;6.062;2024-03-02T12:14:38;5.55;;;0.95;;
52898;SDS011;38763;53.096;6.062;2024-03-02T12:17:04;3.10;;;1.02;;
52898;SDS011;38763;53.096;6.062;2024-03-02T12:19:31;2.97;;;1.00;;
52898;SDS011;38763;53.096;6.062;2024-03-02T12:21:58;4.05;;;1.00;;
52898;SDS011;38763;53.096;6.062;2024-03-02T12:24:26;2.80;;;1.10;;
52898;SDS011;38763;53.096;6.062;2024-03-02T12:26:52;4.57;;;1.00;;
52898;SDS011;38763;53.096;6.062;2024-03-02T12:29:19;2.42;;;0.93;;
52898;SDS011;38763;53.096;6.062;2024-03-02T12:31:49;4.35;;;1.00;;
52898;SDS011;38763;53.096;6.062;2024-03-02T12:34:17;3.33;;;0.88;;
52898;SDS011;38763;53.096;6.062;2024-03-02T12:36:43;2.47;;;0.90;;
52898;SDS011;38763;53.096;6.062;2024-03-02T12:39:12;3.20;;;0.82;;
52898;SDS011;38763;53.096;6.062;2024-03-02T12:41:45;3.13;;;0.90;;
52898;SDS011;38763;53.096;6.062;2024-03-02T12:44:11;2.83;;;0.80;;
52898;SDS011;38763;53.096;6.062;2024-03-02T12:46:37;2.33;;;0.80;;
52898;SDS011;38763;53.096;6.062;2024-03-02T12:49:10;3.08;;;1.02;;
52898;SDS011;38763;53.096;6.062;2024-03-02T12:51:41;4.18;;;0.93;;
52898;SDS011;38763;53.096;6.062;2024-03-02T12:54:07;3.03;;;0.90;;
52898;SDS011;38763;53.096;6.062;2024-03-02T12:56:40;3.25;;;1.13;;
52898;SDS011;38763;53.096;6.062;2024-03-02T12:59:16;3.42;;;0.98;;
52898;SDS011;38763;53.096;6.062;2024-03-02T13:01:53;2.72;;;1.00;;
52898;SDS011;38763;53.096;6.062;2024-03-02T13:04:25;3.13;;;0.98;;
52898;SDS011;38763;53.096;6.062;2024-03-02T13:06:53;1.40;;;0.80;;
52898;SDS011;38763;53.096;6.062;2024-03-02T13:09:22;2.80;;;0.85;;
52898;SDS011;38763;53.096;6.062;2024-03-02T13:11:48;3.65;;;0.80;;
52898;SDS011;38763;53.096;6.062;2024-03-02T13:14:14;3.22;;;0.90;;
52898;SDS011;38763;53.096;6.062;2024-03-02T13:16:40;4.10;;;0.95;;
52898;SDS011;38763;53.096;6.062;2024-03-02T13:19:10;3.63;;;0.90;;
52898;SDS011;38763;53.096;6.062;2024-03-02T13:21:37;2.10;;;0.73;;
52898;SDS011;38763;53.096;6.062;2024-03-02T13:24:03;2.20;;;0.95;;
52898;SDS011;38763;53.096;6.062;2024-03-02T13:26:30;4.22;;;0.95;;
52898;SDS011;38763;53.096;6.062;2024-03-02T13:28:55;4.60;;;1.00;;
52898;SDS011;38763;53.096;6.062;2024-03-02T13:31:21;3.70;;;0.80;;
52898;SDS011;38763;53.096;6.062;2024-03-02T13:33:47;3.42;;;1.02;;
52898;SDS011;38763;53.096;6.062;2024-03-02T13:36:13;3.50;;;1.00;;
52898;SDS011;38763;53.096;6.062;2024-03-02T13:38:39;5.07;;;0.93;;
52898;SDS011;38763;53.096;6.062;2024-03-02T13:41:04;2.70;;;0.90;;
52898;SDS011;38763;53.096;6.062;2024-03-02T13:43:30;2.45;;;0.70;;
52898;SDS011;38763;53.096;6.062;2024-03-02T13:46:00;4.38;;;1.00;;
52898;SDS011;38763;53.096;6.062;2024-03-02T13:48:28;2.90;;;0.77;;
52898;SDS011;38763;53.096;6.062;2024-03-02T13:50:55;3.70;;;1.08;;
52898;SDS011;38763;53.096;6.062;2024-03-02T13:53:21;4.03;;;1.10;;
52898;SDS011;38763;53.096;6.062;2024-03-02T13:55:47;2.55;;;0.80;;
52898;SDS011;38763;53.096;6.062;2024-03-02T13:58:12;4.80;;;1.05;;
52898;SDS011;38763;53.096;6.062;2024-03-02T14:00:38;4.68;;;0.93;;
52898;SDS011;38763;53.096;6.062;2024-03-02T14:03:05;3.47;;;1.00;;
52898;SDS011;38763;53.096;6.062;2024-03-02T14:05:32;2.10;;;0.65;;
52898;SDS011;38763;53.096;6.062;2024-03-02T14:07:58;3.20;;;0.80;;
52898;SDS011;38763;53.096;6.062;2024-03-02T14:10:26;3.58;;;1.10;;
52898;SDS011;38763;53.096;6.062;2024-03-02T14:12:53;2.22;;;0.80;;
52898;SDS011;38763;53.096;6.062;2024-03-02T14:15:20;3.08;;;0.80;;
52898;SDS011;38763;53.096;6.062;2024-03-02T14:17:46;2.65;;;0.90;;
52898;SDS011;38763;53.096;6.062;2024-03-02T14:20:11;4.03;;;1.23;;
52898;SDS011;38763;53.096;6.062;2024-03-02T14:22:38;3.63;;;0.90;;
52898;SDS011;38763;53.096;6.062;2024-03-02T14:25:04;1.92;;;0.90;;
52898;SDS011;38763;53.096;6.062;2024-03-02T14:27:30;5.50;;;1.08;;
52898;SDS011;38763;53.096;6.062;2024-03-02T14:29:56;3.65;;;1.08;;
52898;SDS011;38763;53.096;6.062;2024-03-02T14:32:21;3.63;;;1.00;;
52898;SDS011;38763;53.096;6.062;2024-03-02T14:34:49;5.60;;;1.15;;
52898;SDS011;38763;53.096;6.062;2024-03-02T14:37:14;1.58;;;0.85;;
52898;SDS011;38763;53.096;6.062;2024-03-02T14:39:40;3.38;;;1.10;;
52898;SDS011;38763;53.096;6.062;2024-03-02T14:42:06;4.20;;;1.27;;
52898;SDS011;38763;53.096;6.062;2024-03-02T14:44:32;5.25;;;1.45;;
52898;SDS011;38763;53.096;6.062;2024-03-02T14:46:59;4.30;;;1.50;;
52898;SDS011;38763;53.096;6.062;2024-03-02T14:49:29;7.10;;;1.50;;
52898;SDS011;38763;53.096;6.062;2024-03-02T14:51:55;3.90;;;1.50;;
52898;SDS011;38763;53.096;6.062;2024-03-02T14:54:21;6.57;;;2.15;;
52898;SDS011;38763;53.096;6.062;2024-03-02T14:56:47;6.18;;;2.38;;
52898;SDS011;38763;53.096;6.062;2024-03-02T14:59:13;5.93;;;2.30;;
52898;SDS011;38763;53.096;6.062;2024-03-02T15:01:38;4.57;;;2.63;;
52898;SDS011;38763;53.096;6.062;2024-03-02T15:04:04;6.35;;;3.10;;